Valle Toledo, Valles Caldera, New Mexico Weather observations

Data are for 10 minute period ending at time listed.
 Day   Time   Solar   Ave.   Ave.  Ave.  Vector  Max.   Baro.   Total    
  of    of     Rad.   Air    Rel.  Wind   Wind   Wind  Press.  Precip.   
Year   Day            Temp.  Hum.  Speed  Dir.   Gust                    
2014   (MST)  Kw/m2    F      %     mph   deg.    mph    mb.     in.     
-------------------------------------------------------------------------
 209    5:30   0.01   47.1    93    1.8    26     3.6   741.6    0.00 
 209    5:40   0.03   47.3    93    1.9    46     3.6   741.7    0.00 
 209    5:50   0.04   47.8    94    3.1    42     4.8   741.7    0.00 
 209    6:00   0.04   48.0    93    2.4     5     3.6   741.8    0.00 
 209    6:10   0.05   48.3    93    2.0    29     3.6   741.8    0.00 
 209    6:20   0.05   48.8    93    3.5    46     4.8   741.9    0.00 
 209    6:30   0.05   49.1    93    1.9    14     4.2   742.0    0.00 
 209    6:40   0.05   49.4    93    1.2    42     3.6   742.0    0.00 
 209    6:50   0.05   50.0    93    1.5    40     4.2   742.1    0.00 
 209    7:00   0.12   50.8    93    1.9    11     3.0   742.1    0.00 
 209    7:10   0.15   52.3    93    2.4   342     4.8   742.3    0.00 
 209    7:20   0.18   53.3    91    2.7   351     6.0   742.3    0.00 
 209    7:30   0.28   55.4    82    3.0   279     5.4   742.4    0.00 
 209    7:40   0.28   56.8    79    2.6   284     6.6   742.5    0.00 
 209    7:50   0.25   57.1    78    2.5   196     4.2   742.5    0.00 
 209    8:00   0.27   57.5    75    3.6   148     8.4   742.4    0.00 
 209    8:10   0.30   58.3    73    5.7   147     9.6   742.4    0.00 
 209    8:20   0.25   57.9    74    5.5   159     9.0   742.5    0.00 
 209    8:30   0.26   58.0    74    7.6   150    11.3   742.4    0.00 
 209    8:40   0.30   57.9    74    6.8   145    10.2   742.4    0.00 
 209    8:50   0.32   58.2    74    6.1   142    10.8   742.4    0.00 
 209    9:00   0.42   58.8    72    7.4   147    11.9   742.4    0.00 
 209    9:10   0.36   58.7    72    6.1   150    10.2   742.3    0.00 
 209    9:20   0.33   58.8    73    5.6   148    10.8   742.3    0.00 
 209    9:30   0.29   58.8    75    5.6   159    11.3   742.4    0.00 
 209    9:40   0.30   58.6    75    6.6   157    10.2   742.5    0.00 
 209    9:50   0.34   58.7    75    5.5   151    10.2   742.4    0.00 
 209   10:00   0.71   59.7    74    5.8   145    10.2   742.3    0.00 
 209   10:10   0.73   61.0    70    5.8   150     9.6   742.2    0.00 
 209   10:20   0.85   61.7    69    5.1   146     9.0   742.2    0.00 
 209   10:30   0.82   63.3    65    3.8   146     9.0   742.1    0.00 
 209   10:40   0.62   62.6    67    4.6   144     9.0   741.9    0.00 
 209   10:50   1.00   63.9    63    4.3   190     9.0   741.8    0.00 
 209   11:00   1.03   64.5    60    6.6   151    11.3   741.7    0.00 
 209   11:10   0.64   64.3    61    6.4   152    11.9   741.7    0.00 
 209   11:20   1.10   64.4    60    6.3   162    11.3   741.6    0.00 
 209   11:30   1.07   65.0    58    6.6   161    11.9   741.6    0.00 
 209   11:40   0.73   64.5    58    4.8   166    10.2   741.5    0.00 
 209   11:50   0.98   65.8    59    6.4   163    13.1   741.4    0.00 
 209   12:00   0.60   64.3    60    6.2   149     9.0   741.2    0.00 
 209   12:10   0.97   65.5    59    6.8   165    12.5   741.1    0.00 
 209   12:20   0.45   64.8    60    6.2   167    10.8   740.9    0.00 
 209   12:30   0.59   65.4    56    7.0   158    11.9   740.9    0.00 
 209   12:40   0.84   65.2    58    8.2   145    13.1   740.8    0.00 
 209   12:50   0.71   65.5    56    7.7   147    11.9   740.6    0.00 
 209   13:00   0.90   66.3    57    7.0   158    12.5   740.5    0.00 
 209   13:10   1.05   66.9    54    6.6   159    11.9   740.5    0.00 
 209   13:20   1.05   67.5    52    8.3   154    13.1   740.4    0.00 
 209   13:30   0.93   67.4    51    6.9   160    14.3   740.4    0.00 
 209   13:40   1.04   67.7    49    7.0   161    11.9   740.5    0.00 
 209   13:50   0.98   68.0    45    6.6   162    13.1   740.5    0.00 
 209   14:00   0.93   68.2    47    7.1   162    11.9   740.4    0.00 
 209   14:10   0.69   67.1    49    7.0   167    12.5   740.4    0.00 
 209   14:20   0.79   67.6    47    6.3   179    11.9   740.2    0.00 
 209   14:30   0.55   67.5    49    6.5   166    14.3   740.2    0.00 
 209   14:40   0.52   67.2    49    5.7   147    11.3   740.2    0.00 
 209   14:50   0.34   66.7    51    6.3   147    11.9   740.2    0.00 
 209   15:00   0.41   66.5    51    7.0   152    12.5   740.2    0.00 
 209   15:10   0.44   66.3    51    6.9   144    12.5   740.1    0.00 
 209   15:20   0.70   67.9    48    6.5   144    11.3   739.9    0.00 
 209   15:30   0.66   67.9    51    8.1   147    14.3   739.9    0.00 
 209   15:40   0.51   67.8    51    6.8   155    11.3   739.8    0.00 
 209   15:50   0.28   66.4    54    6.0   153    11.3   739.7    0.00 
 209   16:00   0.23   66.3    56    6.2   160    11.9   739.6    0.00 
 209   16:10   0.08   64.3    62    7.0   157    11.9   739.4    0.00 
 209   16:20   0.11   63.4    63    8.6   160    14.9   739.5    0.00 
 209   16:30   0.07   62.2    63    8.7   158    13.1   739.6    0.00 
 209   16:40   0.05   61.2    66    5.1   161    11.9   739.7    0.00 
 209   16:50   0.03   60.8    67    3.4   254     6.0   740.0    0.00 
 209   17:00   0.01   59.6    67    7.6   297    12.5   740.1    0.00 
 209   17:10   0.02   57.2    65    8.7   350    15.5   740.3    0.00 
 209   17:20   0.01   56.8    67    5.5     4    11.3   740.3    0.00 
 209   17:30   0.01   56.2    73    4.3     6     7.8   740.4    0.00 
 209   17:40   0.01   55.4    80    2.8   347     3.6   740.3    0.01 
 209   17:50   0.02   54.9    84    2.7   352     3.6   740.3    0.00 
 209   18:00   0.02   55.3    82    2.1    55     3.6   740.1    0.00 
 209   18:10   0.02   55.4    84    2.3   187     3.6   740.0    0.00 
 209   18:20   0.02   55.0    86    2.0    49     3.0   740.1    0.00 
 209   18:30   0.01   54.7    86    3.0   257     6.0   740.2    0.00 
 209   18:40   0.01   53.8    86    2.5   280     4.2   740.5    0.00 
 209   18:50   0.01   53.5    85    3.0   345     6.0   740.7    0.00 
 209   19:00   0.00   53.6    85    3.2    10     5.4   740.6    0.00 
 209   19:10   0.00   54.0    84    2.5   356     5.4   740.6    0.00 
 209   19:20   0.00   54.4    80    3.3    12     5.4   740.4    0.00 
 209   19:30   0.00   54.7    78    2.7     8     5.4   740.4    0.00 
 209   19:40   0.00   54.6    77    3.5    79     5.4   740.3    0.00 
 209   19:50   0.00   54.1    80    1.9    85     3.0   740.3    0.00 
 209   20:00   0.00   53.3    82    2.5   328     5.4   740.3    0.00 
 209   20:10   0.00   52.5    84    2.0    26     3.6   740.5    0.00 
 209   20:20   0.00   52.0    86    1.9    26     3.6   740.5    0.00 
 209   20:30   0.00   51.5    85    3.0    60     4.8   740.6    0.00 
 209   20:40   0.00   51.2    85    2.9    18     3.6   740.6    0.00 
 209   20:50   0.00   50.8    86    3.1   336     4.2   740.6    0.00 
 209   21:00   0.00   50.7    86    2.7    38     4.2   740.6    0.00 
 209   21:10   0.00   50.9    86    3.3    34     4.2   740.6    0.00 
 209   21:20   0.00   51.1    86    2.9    47     4.2   740.7    0.00 
 209   21:30   0.00   51.4    86    3.0    73     4.2   740.8    0.00 
 209   21:40   0.00   51.9    84    3.2    43     4.8   740.8    0.00 
 209   21:50   0.00   51.9    84    3.0    25     4.2   740.8    0.00 
 209   22:00   0.00   52.0    86    2.9    59     5.4   740.8    0.00 
 209   22:10   0.00   53.2    84    2.5   105     6.0   740.9    0.00 
 209   22:20   0.00   53.5    83    2.6    70     4.2   740.9    0.00 
 209   22:30   0.00   53.8    82    3.1    78     4.8   740.8    0.00 
 209   22:40   0.00   54.6    79    3.1   106     7.2   740.8    0.00 
 209   22:50   0.00   54.3    80    1.8   162     3.6   740.7    0.00 
 209   23:00   0.00   53.3    83    1.9   340     3.6   740.6    0.00 
 209   23:10   0.00   52.9    84    2.1   314     4.2   740.6    0.00 
 209   23:20   0.00   52.9    85    2.3   297     4.2   740.6    0.00 
 209   23:30   0.00   53.0    85    1.4    90     3.0   740.5    0.00 
 209   23:40   0.00   53.2    85    2.3     5     3.6   740.4    0.00 
 209   23:50   0.00   53.2    85    2.0   354     3.0   740.5    0.00 
 210    0:00   0.00   53.2    85    1.7    48     3.0   740.4    0.00 
 210    0:10   0.00   53.2    86    1.9    30     3.0   740.4    0.00 
 210    0:20   0.00   53.2    86    1.1   125     3.0   740.4    0.00 
 210    0:30   0.00   53.1    88    1.3   102     2.4   740.4    0.02 
 210    0:40   0.00   53.0    88    1.4    22     3.0   740.3    0.02 
 210    0:50   0.00   52.8    89    2.0    30     3.0   740.2    0.01 
 210    1:00   0.00   52.6    90    0.4    95     1.8   740.0    0.02 
 210    1:10   0.00   52.5    91    1.1    50     2.4   739.9    0.01 
 210    1:20   0.00   52.4    91    1.6   308     2.4   739.9    0.01 
 210    1:30   0.00   52.2    92    1.0   358     1.8   739.9    0.00 
 210    1:40   0.00   52.2    92    1.2    35     3.0   739.8    0.00 
 210    1:50   0.00   52.2    92    1.1   115     3.0   739.7    0.00 
 210    2:00   0.00   52.2    92    0.3   342     1.8   739.6    0.00 
 210    2:10   0.00   52.1    92    1.0   239     2.4   739.6    0.00 
 210    2:20   0.00   52.1    92    0.9   132     3.0   739.6    0.00 
 210    2:30   0.00   52.0    93    1.8     9     3.0   739.5    0.00 
 210    2:40   0.00   52.0    93    2.1    14     3.0   739.4    0.00 
 210    2:50   0.00   52.1    93    0.5    58     1.8   739.3    0.00 
 210    3:00   0.00   52.1    93    1.0    98     2.4   739.2    0.00 
 210    3:10   0.00   51.9    93    1.3    37     2.4   739.1    0.01 
 210    3:20   0.00   51.6    92    1.5   344     3.6   739.1    0.00 
 210    3:30   0.00   51.0    92    2.7     0     4.2   739.1    0.00 
 210    3:40   0.00   50.4    92    2.7    13     3.6   739.0    0.00 
 210    3:50   0.00   50.0    92    2.4    49     3.6   739.0    0.00 
 210    4:00   0.00   49.7    92    2.4    77     3.6   739.1    0.00 
 210    4:10   0.00   49.7    93    3.0    65     4.8   739.0    0.00 
 210    4:20   0.00   49.6    93    2.6    25     3.6   738.9    0.00 
 210    4:30   0.00   49.5    93    1.3    69     3.0   739.1    0.00 
 210    4:40   0.00   49.6    93    2.6    37     3.6   739.1    0.00 
 210    4:50   0.00   49.4    93    1.5    35     3.0   739.0    0.00 
 210    5:00   0.00   49.2    93    2.2    50     3.0   739.1    0.00 
 210    5:10   0.00   48.9    92    2.9    42     4.2   739.0    0.00 
 210    5:20   0.00   48.6    92    1.4    17     3.0   739.0    0.00 

Return to Valle Toledo, Valles Caldera graphs page.


Western Regional Climate Center,wrcc@dri.edu